WetterOnline ( https://www.wetteronline.ch )

Wetter aktuell Titisee-Neustadt

Aktuelles Wetter: Feldberg/Schwarzwald (1493m)

6-stündlich | Neueste Meldungen
Ortszeit Temperatur Wetter
Mo, 09.12. 13:00 -1.9° C bedeckt
Mo, 09.12. 7:00 -1.8° C bewölkt
Mo, 09.12. 1:00 0.2° C bewölkt
So, 08.12. 19:00 2.8° C bedeckt
So, 08.12. 13:00 1.1° C bedeckt
So, 08.12. 7:00 -0.7° C bedeckt
So, 08.12. 1:00 -0.6° C bedeckt
Sa, 07.12. 19:00 -0.2° C bewölkt
Ortszeit Temperatur Wetter
Mo, 09.12. 15:30 -1.9° C bedeckt
Mo, 09.12. 15:20 -1.9° C bedeckt
Mo, 09.12. 15:10 -1.9° C bedeckt
Mo, 09.12. 15:00 -1.8° C bewölkt
Mo, 09.12. 14:50 -1.8° C bedeckt
Mo, 09.12. 14:40 -1.7° C bewölkt
Mo, 09.12. 14:30 -1.7° C bewölkt
Mo, 09.12. 14:00 -1.8° C bedeckt
Mo, 09.12. 13:30 -1.9° C bewölkt
Mo, 09.12. 13:00 -1.9° C bedeckt
Mo, 09.12. 12:30 -2.1° C bewölkt
Ortszeit Relative Feuchte Sichtweite
Mo, 09.12. 13:00 97% <100 m
Mo, 09.12. 7:00 98% <100 m
Mo, 09.12. 1:00 80% 55 km
So, 08.12. 19:00 99% 100 m
So, 08.12. 13:00 99% <100 m
So, 08.12. 7:00 98% <100 m
So, 08.12. 1:00 98% <100 m
Sa, 07.12. 19:00 98% 0.2 km
Ortszeit Relative Feuchte Sichtweite
Mo, 09.12. 15:30 99% 100 m
Mo, 09.12. 15:20 99% -
Mo, 09.12. 15:10 98% -
Mo, 09.12. 15:00 99% 0.3 km
Mo, 09.12. 14:50 99% -
Mo, 09.12. 14:40 97% -
Mo, 09.12. 14:30 98% <100 m
Mo, 09.12. 14:00 98% 100 m
Mo, 09.12. 13:30 98% 100 m
Mo, 09.12. 13:00 97% <100 m
Mo, 09.12. 12:30 97% 100 m
Ortszeit Niederschlagsmenge Niederschlagsart
Mo, 09.12. 13:00 9 l/m2 in 6 Std. -
Mo, 09.12. 7:00 22 l/m2 in 12 Std. -
Mo, 09.12. 1:00 14 l/m2 in 6 Std. -
So, 08.12. 19:00 31 l/m2 in 12 Std. -
So, 08.12. 13:00 21 l/m2 in 6 Std. -
So, 08.12. 7:00 0.7 l/m2 in 12 Std. -
So, 08.12. 1:00 0.0 l/m2 in 6 Std. -
Sa, 07.12. 19:00 0.7 l/m2 in 12 Std. -
Ortszeit Niederschlagsmenge Niederschlagsart
Mo, 09.12. 15:30 1.9 l/m2 in 1 Std. -
Mo, 09.12. 15:20 keine Meldung -
Mo, 09.12. 15:10 keine Meldung -
Mo, 09.12. 15:00 1.7 l/m2 in 1 Std. -
Mo, 09.12. 14:50 keine Meldung -
Mo, 09.12. 14:40 keine Meldung -
Mo, 09.12. 14:30 0.1 l/m2 in 1 Std. -
Mo, 09.12. 14:00 0.3 l/m2 in 1 Std. -
Mo, 09.12. 13:30 0.1 l/m2 in 1 Std. -
Mo, 09.12. 13:00 1.4 l/m2 in 1 Std. -
Mo, 09.12. 12:30 1.0 l/m2 in 1 Std. -
Ortszeit Stärke Spitze Richtung
km/h Bft. km/h Grad Sektor
Mo, 09.12. 13:00 65 8 104 230° SW
Mo, 09.12. 7:00 50 7 112 220° SW
Mo, 09.12. 1:00 74 8 126 240° SW
So, 08.12. 19:00 70 8 94 230° SW
So, 08.12. 13:00 67 8 100 230° SW
So, 08.12. 7:00 72 8 94 210° SW
So, 08.12. 1:00 52 7 76 220° SW
Sa, 07.12. 19:00 40 6 68 250° W
Ortszeit Stärke Spitze Richtung
km/h Bft. km/h Grad Sektor
Mo, 09.12. 15:30 52 7 76 230° SW
Mo, 09.12. 15:20 52 7 - 230° SW
Mo, 09.12. 15:10 54 7 - 240° SW
Mo, 09.12. 15:00 43 6 78 230° SW
Mo, 09.12. 14:50 43 6 - 230° SW
Mo, 09.12. 14:40 43 6 - 230° SW
Mo, 09.12. 14:30 47 6 79 240° SW
Mo, 09.12. 14:00 54 7 90 240° SW
Mo, 09.12. 13:30 50 7 86 240° SW
Mo, 09.12. 13:00 65 8 97 230° SW
Mo, 09.12. 12:30 59 7 83 230° SW
Ortszeit Untergrenze Bedeckung Gattung
total tief tief mittel hoch
Mo, 09.12. 13:00 <30 m 8/8 0/8 - - -
Mo, 09.12. 7:00 <30 m 7/8 0/8 - - -
Mo, 09.12. 1:00 150 m 7/8 6/8 - - -
So, 08.12. 19:00 <30 m 8/8 0/8 - - -
So, 08.12. 13:00 <30 m 8/8 0/8 - - -
So, 08.12. 7:00 <30 m 8/8 0/8 - - -
So, 08.12. 1:00 <30 m 8/8 0/8 - - -
Sa, 07.12. 19:00 <30 m 7/8 0/8 - - -
Ortszeit Bedeckungsgrad in Achtel und Wolkenuntergrenze
Mo, 09.12. 15:30 4(<30m) 5(90m) 8(240m)
Mo, 09.12. 15:20 4(<30m) 5(90m) 8(240m)
Mo, 09.12. 15:10 3(<30m) 5(90m) 8(240m)
Mo, 09.12. 15:00 4(<30m) 5(120m) 7(240m)
Mo, 09.12. 14:50 9 9 9
Mo, 09.12. 14:40 6(<30m) 7(240m)
Mo, 09.12. 14:30 7(<30m)
Mo, 09.12. 14:00 8(<30m) 8(180m)
Mo, 09.12. 13:30 7(<30m)
Mo, 09.12. 13:00 8(<30m)
Mo, 09.12. 12:30 6(<30m) 7(120m) 7(240m)
Ortszeit Stationsdruck (hPa) Tendenz (hPa in 3 Std.)
Mo, 09.12. 13:00 836 - 0,7
Mo, 09.12. 7:00 838 - 0,4
Mo, 09.12. 1:00 840 0,0
So, 08.12. 19:00 841 - 2,0
So, 08.12. 13:00 845 - 0,7
So, 08.12. 7:00 846 - 1,6
So, 08.12. 1:00 849 - 0,6
Sa, 07.12. 19:00 850 + 1,1
Ortszeit Stationsdruck (hPa) Tendenz (hPa in 3 Std.)
Mo, 09.12. 15:30 836 + 0,2
Mo, 09.12. 15:20 836 keine Meldung
Mo, 09.12. 15:10 836 keine Meldung
Mo, 09.12. 15:00 837 + 0,5
Mo, 09.12. 14:50 837 keine Meldung
Mo, 09.12. 14:40 837 keine Meldung
Mo, 09.12. 14:30 837 + 0,5
Mo, 09.12. 14:00 836 - 0,3
Mo, 09.12. 13:30 837 0,0
Mo, 09.12. 13:00 836 - 0,7
Mo, 09.12. 12:30 836 - 0,5
Ortszeit Schneehöhe (cm)
Mo, 09.12. 13:00 38
Mo, 09.12. 7:00 21
Mo, 09.12. 1:00 20
So, 08.12. 19:00 23
So, 08.12. 13:00 24
So, 08.12. 7:00 25
So, 08.12. 1:00 25
Sa, 07.12. 19:00 25
Ortszeit Schneehöhe (cm)
Mo, 09.12. 15:30 37
Mo, 09.12. 15:20 37
Mo, 09.12. 15:10 37
Mo, 09.12. 15:00 36
Mo, 09.12. 14:50 36
Mo, 09.12. 14:40 36
Mo, 09.12. 14:30 36
Mo, 09.12. 14:00 36
Mo, 09.12. 13:30 35
Mo, 09.12. 13:00 38
Mo, 09.12. 12:30 38
Link zu dieser Seite / Seite empfehlen

Das Wetter in ...